createdAt,value
2018-09-03T00:00:30.068Z,3.85
2018-09-03T00:02:58.280Z,11.70
2018-09-03T00:05:26.548Z,3.33
2018-09-03T00:07:54.744Z,7.90
2018-09-03T00:10:22.967Z,5.00
2018-09-03T00:12:51.200Z,5.58
2018-09-03T00:15:19.426Z,3.80
2018-09-03T00:17:47.634Z,4.60
2018-09-03T00:20:15.860Z,4.03
2018-09-03T00:22:44.160Z,5.50
2018-09-03T00:25:12.381Z,4.20
2018-09-03T00:27:40.616Z,4.12
2018-09-03T00:30:08.855Z,7.20
2018-09-03T00:32:42.276Z,5.65
2018-09-03T00:35:15.759Z,3.13
2018-09-03T00:37:49.401Z,3.05
2018-09-03T00:40:22.935Z,4.65
2018-09-03T00:42:56.468Z,5.47
2018-09-03T00:45:29.993Z,3.43
2018-09-03T00:47:58.208Z,3.20
2018-09-03T00:50:26.460Z,3.85
2018-09-03T00:52:54.703Z,4.10
2018-09-03T00:55:22.928Z,4.30
2018-09-03T00:57:51.128Z,6.58
2018-09-03T01:00:19.368Z,4.95
2018-09-03T01:02:47.560Z,4.03
2018-09-03T01:05:15.767Z,5.72
2018-09-03T01:07:44.030Z,5.45
2018-09-03T01:10:12.240Z,3.25
2018-09-03T01:12:40.468Z,5.92
2018-09-03T01:15:08.685Z,5.90
2018-09-03T01:17:36.900Z,7.40
2018-09-03T01:20:05.109Z,6.20
2018-09-03T01:22:33.336Z,4.20
2018-09-03T01:25:01.600Z,4.83
2018-09-03T01:27:29.867Z,3.60
2018-09-03T01:29:58.072Z,10.03
2018-09-03T01:32:26.300Z,7.35
2018-09-03T01:34:54.511Z,5.22
2018-09-03T01:37:22.747Z,3.98
2018-09-03T01:39:50.939Z,5.50
2018-09-03T01:42:19.147Z,5.33
2018-09-03T01:44:47.368Z,5.15
2018-09-03T01:47:15.618Z,8.98
2018-09-03T01:49:43.844Z,4.37
2018-09-03T01:52:12.072Z,5.95
2018-09-03T01:54:40.297Z,5.50
2018-09-03T01:57:08.504Z,4.90
2018-09-03T01:59:36.692Z,5.62
2018-09-03T02:02:04.935Z,6.05
2018-09-03T02:04:33.141Z,6.10
2018-09-03T02:07:01.347Z,5.17
2018-09-03T02:09:29.560Z,4.33
2018-09-03T02:11:57.845Z,4.00
2018-09-03T02:14:26.140Z,6.80
2018-09-03T02:16:54.408Z,5.08
2018-09-03T02:19:22.712Z,5.03
2018-09-03T02:21:50.973Z,4.20
2018-09-03T02:24:19.227Z,5.78
2018-09-03T02:26:47.493Z,8.05
2018-09-03T02:29:15.787Z,5.00
2018-09-03T02:31:44.074Z,12.63
2018-09-03T02:34:12.351Z,5.85
2018-09-03T02:36:40.655Z,5.80
2018-09-03T02:39:08.989Z,7.05
2018-09-03T02:41:37.249Z,5.00
2018-09-03T02:44:05.515Z,5.20
2018-09-03T02:46:33.762Z,5.83
2018-09-03T02:49:02.089Z,4.30
2018-09-03T02:51:30.397Z,7.03
2018-09-03T02:53:58.727Z,5.17
2018-09-03T02:56:27.017Z,8.48
2018-09-03T02:58:55.318Z,4.90
2018-09-03T03:01:23.621Z,5.83
2018-09-03T03:03:51.907Z,4.53
2018-09-03T03:06:20.148Z,10.43
2018-09-03T03:08:48.382Z,6.30
2018-09-03T03:11:16.634Z,9.00
2018-09-03T03:13:44.836Z,6.33
2018-09-03T03:16:13.072Z,5.60
2018-09-03T03:18:41.340Z,6.60
2018-09-03T03:21:09.609Z,5.80
2018-09-03T03:23:37.805Z,5.40
2018-09-03T03:26:06.044Z,7.70
2018-09-03T03:28:34.385Z,5.97
2018-09-03T03:31:02.639Z,8.70
2018-09-03T03:33:30.904Z,7.70
2018-09-03T03:35:59.209Z,7.93
2018-09-03T03:38:27.553Z,6.35
2018-09-03T03:40:55.820Z,6.05
2018-09-03T03:43:24.045Z,9.60
2018-09-03T03:45:52.279Z,5.20
2018-09-03T03:48:20.492Z,8.33
2018-09-03T03:50:48.744Z,7.00
2018-09-03T03:53:16.990Z,6.43
2018-09-03T03:55:45.224Z,9.58
2018-09-03T03:58:13.454Z,6.57
2018-09-03T04:00:41.740Z,7.00
2018-09-03T04:03:09.962Z,6.07
2018-09-03T04:05:38.212Z,6.90
2018-09-03T04:08:06.474Z,6.63
2018-09-03T04:10:34.745Z,9.64
2018-09-03T04:13:05.368Z,6.23
2018-09-03T04:15:35.144Z,6.83
2018-09-03T04:18:03.949Z,8.70
2018-09-03T04:20:32.208Z,5.92
2018-09-03T04:23:00.468Z,7.27
2018-09-03T04:25:28.690Z,7.90
2018-09-03T04:27:56.972Z,8.60
2018-09-03T04:30:25.196Z,8.53
2018-09-03T04:32:53.876Z,8.53
2018-09-03T04:35:22.160Z,7.60
2018-09-03T04:37:50.379Z,7.22
2018-09-03T04:40:18.588Z,6.80
2018-09-03T04:42:46.820Z,8.65
2018-09-03T04:45:15.088Z,7.30
2018-09-03T04:47:43.392Z,9.70
2018-09-03T04:50:11.613Z,10.35
2018-09-03T04:52:39.857Z,9.20
2018-09-03T04:55:08.144Z,7.97
2018-09-03T04:57:36.349Z,8.38
2018-09-03T05:00:05.535Z,9.48
2018-09-03T05:02:33.744Z,7.30
2018-09-03T05:05:02.006Z,14.50
2018-09-03T05:07:30.232Z,8.23
2018-09-03T05:09:58.440Z,8.23
2018-09-03T05:12:26.673Z,10.47
2018-09-03T05:17:34.459Z,14.35
2018-09-03T05:20:02.684Z,9.90
2018-09-03T05:22:30.880Z,9.60
2018-09-03T05:24:59.148Z,10.90
2018-09-03T05:27:27.342Z,10.40
2018-09-03T05:29:55.595Z,10.95
2018-09-03T05:32:23.810Z,15.87
2018-09-03T05:34:52.037Z,14.78
2018-09-03T05:37:20.252Z,12.63
2018-09-03T05:39:48.480Z,11.28
2018-09-03T05:42:16.689Z,12.50
2018-09-03T05:44:44.908Z,10.15
2018-09-03T05:47:13.124Z,11.35
2018-09-03T05:49:41.365Z,11.90
2018-09-03T05:52:09.629Z,12.33
2018-09-03T05:54:37.892Z,10.10
2018-09-03T05:57:06.116Z,11.12
2018-09-03T05:59:34.336Z,11.73
2018-09-03T06:02:02.581Z,13.95
2018-09-03T06:04:30.820Z,16.20
2018-09-03T06:06:59.037Z,12.75
2018-09-03T06:09:27.255Z,12.80
2018-09-03T06:11:55.464Z,13.35
2018-09-03T06:14:23.768Z,11.53
2018-09-03T06:16:51.991Z,14.80
2018-09-03T06:19:20.224Z,13.53
2018-09-03T06:21:48.427Z,12.60
2018-09-03T06:24:16.631Z,13.00
2018-09-03T06:26:44.905Z,13.83
2018-09-03T06:29:13.097Z,13.88
2018-09-03T06:31:41.332Z,14.15
2018-09-03T06:34:09.549Z,13.68
2018-09-03T06:36:37.775Z,13.80
2018-09-03T06:39:07.664Z,14.13
2018-09-03T06:41:35.929Z,13.45
2018-09-03T06:44:04.144Z,17.67
2018-09-03T06:46:32.618Z,16.15
2018-09-03T06:49:00.848Z,15.68
2018-09-03T06:51:29.075Z,15.00
2018-09-03T06:53:57.347Z,16.50
2018-09-03T06:56:25.572Z,15.50
2018-09-03T06:58:53.796Z,13.93
2018-09-03T07:01:22.011Z,15.30
2018-09-03T07:03:50.220Z,13.53
2018-09-03T07:06:18.449Z,15.15
2018-09-03T07:08:46.646Z,14.40
2018-09-03T07:11:14.903Z,15.80
2018-09-03T07:13:43.109Z,17.10
2018-09-03T07:16:11.399Z,15.55
2018-09-03T07:18:39.676Z,13.78
2018-09-03T07:21:07.860Z,14.28
2018-09-03T07:23:36.085Z,14.93
2018-09-03T07:26:04.291Z,17.10
2018-09-03T07:28:32.519Z,19.48
2018-09-03T07:31:00.725Z,15.20
2018-09-03T07:33:28.961Z,17.95
2018-09-03T07:35:57.244Z,18.98
2018-09-03T07:38:25.995Z,17.25
2018-09-03T07:40:54.198Z,18.05
2018-09-03T07:43:22.442Z,18.95
2018-09-03T07:45:50.641Z,16.15
2018-09-03T07:48:18.876Z,18.17
2018-09-03T07:50:47.093Z,13.77
2018-09-03T07:53:15.332Z,15.98
2018-09-03T07:55:43.540Z,15.65
2018-09-03T07:58:11.808Z,16.10
2018-09-03T08:00:40.021Z,16.97
2018-09-03T08:03:08.265Z,17.00
2018-09-03T08:05:36.475Z,16.65
2018-09-03T08:08:04.765Z,17.10
2018-09-03T08:10:32.991Z,16.07
2018-09-03T08:13:01.268Z,15.93
2018-09-03T08:15:29.464Z,16.90
2018-09-03T08:17:57.707Z,16.10
2018-09-03T08:20:25.921Z,22.40
2018-09-03T08:22:54.156Z,18.77
2018-09-03T08:25:22.370Z,21.12
2018-09-03T08:27:50.584Z,20.37
2018-09-03T08:30:18.913Z,15.45
2018-09-03T08:32:47.164Z,19.12
2018-09-03T08:35:15.428Z,16.95
2018-09-03T08:37:43.648Z,18.85
2018-09-03T08:40:11.876Z,18.30
2018-09-03T08:42:40.086Z,21.02
2018-09-03T08:45:08.304Z,18.15
2018-09-03T08:47:36.509Z,18.27
2018-09-03T08:50:04.745Z,15.75
2018-09-03T08:52:32.972Z,15.75
2018-09-03T08:55:01.234Z,16.50
2018-09-03T08:57:29.436Z,19.17
2018-09-03T08:59:57.672Z,18.25
2018-09-03T09:02:25.868Z,16.97
2018-09-03T09:04:54.096Z,17.20
2018-09-03T09:07:22.312Z,21.10
2018-09-03T09:09:50.539Z,22.50
2018-09-03T09:12:18.765Z,18.32
2018-09-03T09:14:46.989Z,16.75
2018-09-03T09:17:15.291Z,16.60
2018-09-03T09:19:43.532Z,22.27
2018-09-03T09:22:11.752Z,23.18
2018-09-03T09:24:39.996Z,21.07
2018-09-03T09:27:08.200Z,21.90
2018-09-03T09:29:36.408Z,19.62
2018-09-03T09:32:04.652Z,23.00
2018-09-03T09:34:32.870Z,19.40
2018-09-03T09:37:01.148Z,20.77
2018-09-03T09:39:29.350Z,21.15
2018-09-03T09:41:57.576Z,23.15
2018-09-03T09:44:25.816Z,23.77
2018-09-03T09:46:54.050Z,27.03
2018-09-03T09:49:23.644Z,25.90
2018-09-03T09:51:51.872Z,27.85
2018-09-03T09:54:20.124Z,34.58
2018-09-03T09:56:48.368Z,37.73
2018-09-03T09:59:16.630Z,33.23
2018-09-03T10:01:44.875Z,34.60
2018-09-03T10:04:13.134Z,36.43
2018-09-03T10:06:41.355Z,31.37
2018-09-03T10:09:09.580Z,37.10
2018-09-03T10:11:37.820Z,31.15
2018-09-03T10:14:06.403Z,28.85
2018-09-03T10:16:34.693Z,31.05
2018-09-03T10:19:02.917Z,30.90
2018-09-03T10:21:31.151Z,32.37
2018-09-03T10:23:59.363Z,33.20
2018-09-03T10:26:27.609Z,34.93
2018-09-03T10:28:55.856Z,29.50
2018-09-03T10:31:24.125Z,32.00
2018-09-03T10:33:52.347Z,28.93
2018-09-03T10:36:20.580Z,31.82
2018-09-03T10:38:48.833Z,30.57
2018-09-03T10:41:17.037Z,32.93
2018-09-03T10:43:45.281Z,32.93
2018-09-03T10:46:13.507Z,37.70
2018-09-03T10:48:41.916Z,29.10
2018-09-03T10:51:10.219Z,33.88
2018-09-03T10:53:38.476Z,32.63
2018-09-03T10:56:06.831Z,28.60
2018-09-03T10:58:35.052Z,32.53
2018-09-03T11:01:03.272Z,33.63
2018-09-03T11:03:31.508Z,29.27
2018-09-03T11:05:59.720Z,28.80
2018-09-03T11:08:27.955Z,29.25
2018-09-03T11:10:56.179Z,28.50
2018-09-03T11:13:24.439Z,34.18
2018-09-03T11:15:52.656Z,33.90
2018-09-03T11:18:20.908Z,26.40
2018-09-03T11:20:49.143Z,32.03
2018-09-03T11:23:17.392Z,29.75
2018-09-03T11:25:45.636Z,25.35
2018-09-03T11:28:13.880Z,26.73
2018-09-03T11:30:42.106Z,23.75
2018-09-03T11:33:10.374Z,25.63
2018-09-03T11:35:38.588Z,31.53
2018-09-03T11:38:06.822Z,28.87
2018-09-03T11:40:35.072Z,32.95
2018-09-03T11:43:03.291Z,24.73
2018-09-03T11:45:31.532Z,24.72
2018-09-03T11:47:59.764Z,36.90
2018-09-03T11:50:27.996Z,30.37
2018-09-03T11:52:56.219Z,25.97
2018-09-03T11:55:24.473Z,30.10
2018-09-03T11:57:52.728Z,28.73
2018-09-03T12:00:26.861Z,25.35
2018-09-03T12:02:55.140Z,23.80
2018-09-03T12:05:23.419Z,27.25
2018-09-03T12:07:51.645Z,26.00
2018-09-03T12:10:19.895Z,25.82
2018-09-03T12:12:48.276Z,24.63
2018-09-03T12:15:24.068Z,23.65
2018-09-03T12:17:52.340Z,28.42
2018-09-03T12:20:20.592Z,28.73
2018-09-03T12:22:48.867Z,27.37
2018-09-03T12:25:18.164Z,26.23
2018-09-03T12:27:46.442Z,23.95
2018-09-03T12:30:14.658Z,25.90
2018-09-03T12:32:43.103Z,29.40
2018-09-03T12:35:11.372Z,22.80
2018-09-03T12:37:39.597Z,22.55
2018-09-03T12:40:07.829Z,30.10
2018-09-03T12:42:36.072Z,27.40
2018-09-03T12:45:04.391Z,25.37
2018-09-03T12:47:32.711Z,20.67
2018-09-03T13:03:27.183Z,23.00
2018-09-03T13:05:56.854Z,22.17
2018-09-03T13:08:26.466Z,21.30
2018-09-03T13:26:09.503Z,20.85
2018-09-03T13:28:37.720Z,21.67
2018-09-03T13:31:05.987Z,21.57
2018-09-03T13:33:34.218Z,22.62
2018-09-03T13:36:02.593Z,21.23
2018-09-03T13:38:30.820Z,26.20
2018-09-03T13:40:59.065Z,21.45
2018-09-03T13:43:27.328Z,23.70
2018-09-03T13:45:55.549Z,20.73
2018-09-03T13:48:23.831Z,25.75
2018-09-03T13:50:52.028Z,19.87
2018-09-03T14:06:38.496Z,23.10
2018-09-03T14:09:08.178Z,23.12
2018-09-03T14:11:36.547Z,23.05
2018-09-03T14:14:05.094Z,31.27
2018-09-03T14:16:33.825Z,22.80
2018-09-03T14:19:02.252Z,20.37
2018-09-03T14:21:30.651Z,20.02
2018-09-03T14:23:58.928Z,24.90
2018-09-03T14:26:27.954Z,22.50
2018-09-03T14:28:56.436Z,22.47
2018-09-03T14:31:24.684Z,21.42
2018-09-03T14:33:54.213Z,21.95
2018-09-03T14:36:22.680Z,23.77
2018-09-03T14:38:51.644Z,21.87
2018-09-03T14:41:20.242Z,23.38
2018-09-03T14:43:48.608Z,19.30
2018-09-03T14:46:16.848Z,21.93
2018-09-03T14:48:46.448Z,22.07
2018-09-03T14:51:15.025Z,25.67
2018-09-03T14:53:43.428Z,21.87
2018-09-03T14:56:11.830Z,21.42
2018-09-03T14:58:44.064Z,20.60
2018-09-03T15:01:12.404Z,21.40
2018-09-03T15:03:40.729Z,24.10
2018-09-03T15:06:10.233Z,20.55
2018-09-03T15:08:39.812Z,24.75
2018-09-03T15:11:08.666Z,19.60
2018-09-03T15:13:37.004Z,23.50
2018-09-03T15:16:05.239Z,19.90
2018-09-03T15:18:33.705Z,21.33
2018-09-03T15:21:02.121Z,18.87
2018-09-03T15:23:31.200Z,21.98
2018-09-03T15:25:59.472Z,25.08
2018-09-03T15:28:28.076Z,25.03
2018-09-03T15:30:56.580Z,23.65
2018-09-03T15:33:24.809Z,22.37
2018-09-03T15:35:53.132Z,26.40
2018-09-03T15:38:21.356Z,22.10
2018-09-03T15:40:49.719Z,25.30
2018-09-03T15:43:18.103Z,20.30
2018-09-03T15:45:46.436Z,24.77
2018-09-03T15:48:14.733Z,21.17
2018-09-03T15:50:43.010Z,17.95
2018-09-03T15:53:11.272Z,19.93
2018-09-03T15:55:39.512Z,18.27
2018-09-03T15:58:07.825Z,24.27
2018-09-03T16:00:36.097Z,23.80
2018-09-03T16:03:04.480Z,22.00
2018-09-03T16:05:32.671Z,21.13
2018-09-03T16:08:00.910Z,18.77
2018-09-03T16:10:29.143Z,24.05
2018-09-03T16:12:57.412Z,21.60
2018-09-03T16:15:25.688Z,20.57
2018-09-03T16:17:54.107Z,23.25
2018-09-03T16:20:22.736Z,21.87
2018-09-03T16:22:50.972Z,18.87
2018-09-03T16:25:19.208Z,24.63
2018-09-03T16:27:47.503Z,21.93
2018-09-03T16:30:15.688Z,19.47
2018-09-03T16:32:43.944Z,21.77
2018-09-03T16:35:12.152Z,19.80
2018-09-03T16:37:40.401Z,21.90
2018-09-03T16:40:09.251Z,23.90
2018-09-03T16:42:37.492Z,19.67
2018-09-03T16:45:05.797Z,22.83
2018-09-03T16:47:34.042Z,19.53
2018-09-03T16:50:02.277Z,23.10
2018-09-03T16:52:30.593Z,22.73
2018-09-03T16:54:58.840Z,27.30
2018-09-03T16:57:27.160Z,20.45
2018-09-03T16:59:55.436Z,22.27
2018-09-03T17:02:23.652Z,23.67
2018-09-03T17:04:51.939Z,19.35
2018-09-03T17:07:20.213Z,27.43
2018-09-03T17:09:48.492Z,27.43
2018-09-03T17:12:16.700Z,19.92
2018-09-03T17:14:44.949Z,20.82
2018-09-03T17:17:13.196Z,20.23
2018-09-03T17:19:41.912Z,25.08
2018-09-03T17:22:10.237Z,18.80
2018-09-03T17:24:38.472Z,19.57
2018-09-03T17:27:06.700Z,21.62
2018-09-03T17:29:34.954Z,27.13
2018-09-03T17:32:03.197Z,20.03
2018-09-03T17:34:31.452Z,21.10
2018-09-03T17:36:59.687Z,26.33
2018-09-03T17:39:27.924Z,23.42
2018-09-03T17:41:56.160Z,23.10
2018-09-03T17:44:24.416Z,26.12
2018-09-03T17:46:52.648Z,19.65
2018-09-03T17:49:20.973Z,20.65
2018-09-03T17:51:49.164Z,24.77
2018-09-03T17:54:17.426Z,17.90
2018-09-03T17:56:45.669Z,27.70
2018-09-03T17:59:14.024Z,17.57
2018-09-03T18:01:42.276Z,22.10
2018-09-03T18:04:10.840Z,20.33
2018-09-03T18:06:39.076Z,25.55
2018-09-03T18:09:07.556Z,19.40
2018-09-03T18:11:35.927Z,20.35
2018-09-03T18:14:04.299Z,19.67
2018-09-03T18:16:32.767Z,18.23
2018-09-03T18:19:01.041Z,20.27
2018-09-03T18:21:29.456Z,19.37
2018-09-03T18:23:57.720Z,18.82
2018-09-03T18:26:25.989Z,16.30
2018-09-03T18:28:54.263Z,17.75
2018-09-03T18:31:22.563Z,22.30
2018-09-03T18:33:50.801Z,18.97
2018-09-03T18:36:19.095Z,22.10
2018-09-03T18:38:47.418Z,22.33
2018-09-03T18:41:15.774Z,21.17
2018-09-03T18:43:44.139Z,22.87
2018-09-03T18:46:12.440Z,21.00
2018-09-03T18:48:40.726Z,20.45
2018-09-03T18:51:09.067Z,18.85
2018-09-03T18:53:37.451Z,24.00
2018-09-03T18:56:06.035Z,24.63
2018-09-03T18:58:34.549Z,26.20
2018-09-03T19:01:02.899Z,32.53
2018-09-03T19:03:31.273Z,20.90
2018-09-03T19:05:59.701Z,16.45
2018-09-03T19:08:27.973Z,24.43
2018-09-03T19:10:56.253Z,21.27
2018-09-03T19:13:24.586Z,21.40
2018-09-03T19:15:52.898Z,19.35
2018-09-03T19:18:21.321Z,24.90
2018-09-03T19:20:49.702Z,23.30
2018-09-03T19:23:18.014Z,22.10
2018-09-03T19:25:46.336Z,25.13
2018-09-03T19:28:14.612Z,24.85
2018-09-03T19:30:42.848Z,22.25
2018-09-03T19:33:11.696Z,25.27
2018-09-03T19:35:39.901Z,24.00
2018-09-03T19:38:08.147Z,24.07
2018-09-03T19:40:36.495Z,23.63
2018-09-03T19:43:04.746Z,28.47
2018-09-03T19:45:32.985Z,23.62
2018-09-03T19:48:01.219Z,25.33
2018-09-03T19:50:29.449Z,29.18
2018-09-03T19:52:57.727Z,29.23
2018-09-03T19:55:25.993Z,35.20
2018-09-03T19:57:54.216Z,27.65
2018-09-03T20:00:22.460Z,30.77
2018-09-03T20:02:50.692Z,31.20
2018-09-03T20:05:18.901Z,28.10
2018-09-03T20:07:47.187Z,35.28
2018-09-03T20:10:15.420Z,34.80
2018-09-03T20:12:43.645Z,31.33
2018-09-03T20:15:14.144Z,30.43
2018-09-03T20:17:42.384Z,38.73
2018-09-03T20:20:10.624Z,32.70
2018-09-03T20:22:38.861Z,29.47
2018-09-03T20:25:07.241Z,31.52
2018-09-03T20:27:35.469Z,29.10
2018-09-03T20:30:03.705Z,35.83
2018-09-03T20:32:32.400Z,37.25
2018-09-03T20:35:00.627Z,33.02
2018-09-03T20:37:28.905Z,33.67
2018-09-03T20:39:57.216Z,29.05
2018-09-03T20:42:25.426Z,30.80
2018-09-03T20:44:53.892Z,31.70
2018-09-03T20:47:22.040Z,33.33
2018-09-03T20:49:50.300Z,33.45
2018-09-03T20:52:18.557Z,36.42
2018-09-03T20:54:46.877Z,37.20
2018-09-03T20:57:15.141Z,39.97
2018-09-03T20:59:43.411Z,31.55
2018-09-03T21:02:11.632Z,35.80
2018-09-03T21:04:39.895Z,36.90
2018-09-03T21:07:08.365Z,33.70
2018-09-03T21:09:37.361Z,31.50
2018-09-03T21:12:05.652Z,40.03
2018-09-03T21:14:33.933Z,32.80
2018-09-03T21:17:02.170Z,35.10
2018-09-03T21:19:30.389Z,38.98
2018-09-03T21:21:58.674Z,33.00
2018-09-03T21:24:26.948Z,31.43
2018-09-03T21:26:55.195Z,33.90
2018-09-03T21:29:23.430Z,37.13
2018-09-03T21:31:51.673Z,32.60
2018-09-03T21:34:19.908Z,38.23
2018-09-03T21:36:48.249Z,37.33
2018-09-03T21:39:16.522Z,38.37
2018-09-03T21:41:44.740Z,34.95
2018-09-03T21:44:12.980Z,31.93
2018-09-03T21:46:41.250Z,36.00
2018-09-03T21:49:09.896Z,33.67
2018-09-03T21:51:38.152Z,42.88
2018-09-03T21:54:06.480Z,41.50
2018-09-03T21:56:34.724Z,41.33
2018-09-03T21:59:03.000Z,39.67
2018-09-03T22:01:31.248Z,39.75
2018-09-03T22:03:59.517Z,35.90
2018-09-03T22:06:28.984Z,36.80
2018-09-03T22:08:57.553Z,37.67
2018-09-03T22:11:26.104Z,37.80
2018-09-03T22:13:54.323Z,37.33
2018-09-03T22:16:22.640Z,37.73
2018-09-03T22:18:50.901Z,39.25
2018-09-03T22:21:19.220Z,36.83
2018-09-03T22:23:47.491Z,36.70
2018-09-03T22:26:15.764Z,38.75
2018-09-03T22:28:44.012Z,35.77
2018-09-03T22:31:12.233Z,37.07
2018-09-03T22:33:40.465Z,39.40
2018-09-03T22:36:08.776Z,37.20
2018-09-03T22:38:37.152Z,36.33
2018-09-03T22:41:05.659Z,36.63
2018-09-03T22:43:33.884Z,38.67
2018-09-03T22:46:02.120Z,35.25
2018-09-03T22:48:30.361Z,40.85
2018-09-03T22:50:58.628Z,35.90
2018-09-03T22:53:26.871Z,39.23
2018-09-03T22:55:55.077Z,39.95
2018-09-03T22:58:23.312Z,38.78
2018-09-03T23:00:51.537Z,41.98
2018-09-03T23:03:19.809Z,45.52
2018-09-03T23:05:48.201Z,46.67
2018-09-03T23:08:16.292Z,43.70
2018-09-03T23:10:44.516Z,44.55
2018-09-03T23:13:12.769Z,42.95
2018-09-03T23:15:45.155Z,46.20
2018-09-03T23:18:13.423Z,43.25
2018-09-03T23:20:41.652Z,42.85
2018-09-03T23:23:09.875Z,44.50
2018-09-03T23:25:38.135Z,46.23
2018-09-03T23:28:06.349Z,45.37
2018-09-03T23:30:34.588Z,45.88
2018-09-03T23:33:02.808Z,40.80
2018-09-03T23:35:31.052Z,45.70
2018-09-03T23:37:59.289Z,45.65
2018-09-03T23:40:27.528Z,42.35
2018-09-03T23:42:55.764Z,43.85
2018-09-03T23:45:23.999Z,41.63
2018-09-03T23:47:52.212Z,44.90
2018-09-03T23:50:20.455Z,41.92
2018-09-03T23:52:48.696Z,44.15
2018-09-03T23:55:16.948Z,45.75
2018-09-03T23:57:45.221Z,46.20
